Time;durP1;ratioP1;P1;durP2;ratioP2;P2;SDS_P1;SDS_P2;PMS_P1;PMS_P2;Temp;Humidity;BMP_temperature;BMP_pressure;BME280_temperature;BME280_humidity;BME280_pressure;Samples;Min_cycle;Max_cycle;Signal;HPM_P1;HPM_P2
2022/06/13 00:00:57;;;;;;;9.73;3.75;;;;;;;;;;5014384;28;20300;-64
2022/06/13 00:03:22;;;;;;;10.68;3.60;;;;;;;;;;5006512;28;20263;-63
2022/06/13 00:05:47;;;;;;;12.73;4.03;;;;;;;;;;4998311;28;20217;-64
2022/06/13 00:08:12;;;;;;;13.50;4.63;;;;;;;;;;4994211;28;20217;-63
2022/06/13 00:10:38;;;;;;;10.88;3.75;;;;;;;;;;5012276;28;20592;-63
2022/06/13 00:13:03;;;;;;;14.95;4.32;;;;;;;;;;5012526;28;20616;-63
2022/06/13 00:15:29;;;;;;;10.18;4.10;;;;;;;;;;4994920;28;20208;-64
2022/06/13 00:17:54;;;;;;;13.93;4.22;;;;;;;;;;5005475;28;20671;-63
2022/06/13 00:20:19;;;;;;;11.05;4.22;;;;;;;;;;5001216;28;20703;-64
2022/06/13 00:22:44;;;;;;;11.38;3.95;;;;;;;;;;4994573;28;20232;-64
2022/06/13 00:25:10;;;;;;;15.98;4.50;;;;;;;;;;5001848;28;20228;-64
2022/06/13 00:27:35;;;;;;;13.30;4.53;;;;;;;;;;4994384;28;20260;-64
2022/06/13 00:30:02;;;;;;;14.27;4.28;;;;;;;;;;5010758;28;20212;-63
2022/06/13 00:32:27;;;;;;;13.38;4.35;;;;;;;;;;5013596;28;20224;-64
2022/06/13 00:34:52;;;;;;;11.68;3.78;;;;;;;;;;5004784;28;20221;-64
2022/06/13 00:37:18;;;;;;;14.07;3.83;;;;;;;;;;4990621;28;20598;-64
2022/06/13 00:39:43;;;;;;;12.30;4.28;;;;;;;;;;4987411;28;20260;-64
2022/06/13 00:42:08;;;;;;;13.30;4.78;;;;;;;;;;4984320;28;20224;-64
2022/06/13 00:44:35;;;;;;;12.43;4.63;;;;;;;;;;4989857;28;20674;-64
2022/06/13 00:47:00;;;;;;;11.60;4.60;;;;;;;;;;4984342;28;20303;-63
2022/06/13 00:49:29;;;;;;;14.48;4.47;;;;;;;;;;4983098;28;20613;-64
2022/06/13 00:51:55;;;;;;;10.98;4.03;;;;;;;;;;4978582;28;20225;-64
2022/06/13 00:54:21;;;;;;;8.35;3.60;;;;;;;;;;4976280;28;20361;-64
2022/06/13 00:56:47;;;;;;;10.63;3.97;;;;;;;;;;4993707;28;20225;-64
2022/06/13 00:59:13;;;;;;;14.05;4.13;;;;;;;;;;4983286;28;20252;-63
2022/06/13 01:01:38;;;;;;;13.05;4.38;;;;;;;;;;4999721;28;20229;-63
2022/06/13 01:04:04;;;;;;;10.63;4.30;;;;;;;;;;4983438;28;20220;-64
2022/06/13 01:06:30;;;;;;;10.25;3.97;;;;;;;;;;4984436;28;20209;-63
2022/06/13 01:08:55;;;;;;;10.38;3.90;;;;;;;;;;4985896;28;20221;-64
2022/06/13 01:11:21;;;;;;;11.48;3.90;;;;;;;;;;5000720;28;20751;-63
2022/06/13 01:13:59;;;;;;;12.75;4.60;;;;;;;;;;4979391;28;20221;-64
2022/06/13 01:16:24;;;;;;;9.18;3.75;;;;;;;;;;4977817;28;20315;-64
2022/06/13 01:19:01;;;;;;;10.68;4.25;;;;;;;;;;4977608;28;20304;-64
2022/06/13 01:21:31;;;;;;;11.25;4.28;;;;;;;;;;4998460;28;20267;-64
2022/06/13 01:24:15;;;;;;;14.32;5.20;;;;;;;;;;5001194;28;20225;-64
2022/06/13 01:26:49;;;;;;;11.23;4.15;;;;;;;;;;4999112;28;20229;-64
2022/06/13 01:29:19;;;;;;;13.18;4.63;;;;;;;;;;4985732;28;20316;-64
2022/06/13 01:32:03;;;;;;;12.73;4.43;;;;;;;;;;5007787;28;20244;-64
2022/06/13 01:34:56;;;;;;;15.50;4.63;;;;;;;;;;4983649;28;20241;-64
2022/06/13 01:37:27;;;;;;;11.23;4.30;;;;;;;;;;4985313;28;20220;-64
2022/06/13 01:40:07;;;;;;;12.32;4.45;;;;;;;;;;4989850;28;20747;-64
2022/06/13 01:42:39;;;;;;;15.98;4.18;;;;;;;;;;4995958;28;20250;-64
2022/06/13 01:45:09;;;;;;;14.02;4.75;;;;;;;;;;5004756;28;20662;-64
2022/06/13 01:47:37;;;;;;;11.90;4.05;;;;;;;;;;4999493;28;20296;-64
2022/06/13 01:50:21;;;;;;;11.25;4.35;;;;;;;;;;5001997;28;20274;-63
2022/06/13 01:53:02;;;;;;;13.15;4.38;;;;;;;;;;4994341;28;20272;-63
2022/06/13 01:55:31;;;;;;;11.73;4.00;;;;;;;;;;5005317;28;20616;-64
2022/06/13 01:58:02;;;;;;;13.13;4.13;;;;;;;;;;4999064;28;20221;-63
2022/06/13 02:00:27;;;;;;;13.88;4.43;;;;;;;;;;4988736;28;20537;-63
2022/06/13 02:02:56;;;;;;;12.13;4.68;;;;;;;;;;4974922;28;20213;-64
2022/06/13 02:05:31;;;;;;;16.40;4.63;;;;;;;;;;4992551;28;20221;-64
2022/06/13 02:07:58;;;;;;;14.05;4.75;;;;;;;;;;5009025;28;20231;-64
2022/06/13 02:10:26;;;;;;;17.27;5.57;;;;;;;;;;4984092;28;20221;-64
2022/06/13 02:12:52;;;;;;;15.48;4.72;;;;;;;;;;5017457;28;20568;-65
2022/06/13 02:15:20;;;;;;;15.52;5.18;;;;;;;;;;4992465;28;20252;-64
2022/06/13 02:17:48;;;;;;;11.57;4.70;;;;;;;;;;4994585;28;20308;-64
2022/06/13 02:20:16;;;;;;;13.95;4.65;;;;;;;;;;5003740;28;20217;-64
2022/06/13 02:22:42;;;;;;;14.20;5.30;;;;;;;;;;4994871;28;20233;-63
2022/06/13 02:25:08;;;;;;;17.33;5.18;;;;;;;;;;5000265;28;20213;-63
2022/06/13 02:27:35;;;;;;;13.30;4.55;;;;;;;;;;4976210;28;20570;-64
2022/06/13 02:30:03;;;;;;;17.35;5.20;;;;;;;;;;4997390;28;20672;-62
2022/06/13 02:32:31;;;;;;;19.35;4.88;;;;;;;;;;5000650;28;20617;-64
2022/06/13 02:34:57;;;;;;;15.32;4.82;;;;;;;;;;4982709;28;20513;-64
2022/06/13 02:37:30;;;;;;;15.45;4.88;;;;;;;;;;4984430;28;20213;-64
2022/06/13 02:39:58;;;;;;;16.55;5.28;;;;;;;;;;4984512;28;20217;-64
2022/06/13 02:42:31;;;;;;;17.88;5.53;;;;;;;;;;5016247;28;20229;-64
2022/06/13 02:44:59;;;;;;;11.65;4.78;;;;;;;;;;4985498;28;20244;-64
2022/06/13 02:47:27;;;;;;;14.20;5.00;;;;;;;;;;4976765;28;20225;-64
2022/06/13 02:49:57;;;;;;;12.63;5.18;;;;;;;;;;5001230;28;20400;-64
2022/06/13 02:52:27;;;;;;;12.57;4.45;;;;;;;;;;5000641;28;20588;-64
2022/06/13 02:54:54;;;;;;;14.20;4.93;;;;;;;;;;4984408;28;20236;-64
2022/06/13 02:57:27;;;;;;;14.25;4.80;;;;;;;;;;4982305;28;20235;-64
2022/06/13 02:59:57;;;;;;;16.00;5.05;;;;;;;;;;5015715;28;20224;-64
2022/06/13 03:02:41;;;;;;;16.90;5.22;;;;;;;;;;4988267;28;20764;-64
2022/06/13 03:05:10;;;;;;;12.13;4.90;;;;;;;;;;4998752;28;20216;-64
2022/06/13 03:07:36;;;;;;;13.68;5.30;;;;;;;;;;5006142;28;20216;-64
2022/06/13 03:10:12;;;;;;;11.70;5.38;;;;;;;;;;4974090;28;20217;-63
2022/06/13 03:12:40;;;;;;;13.32;5.28;;;;;;;;;;4988910;28;20715;-64
2022/06/13 03:15:07;;;;;;;15.43;4.95;;;;;;;;;;5008246;28;20216;-64
2022/06/13 03:17:33;;;;;;;15.93;5.70;;;;;;;;;;4982506;28;20240;-64
2022/06/13 03:20:04;;;;;;;15.10;5.35;;;;;;;;;;4981950;28;20259;-64
2022/06/13 03:22:31;;;;;;;12.43;5.03;;;;;;;;;;5006283;28;20213;-64
2022/06/13 03:25:03;;;;;;;15.57;5.45;;;;;;;;;;4997555;28;20267;-64
2022/06/13 03:27:33;;;;;;;13.20;5.18;;;;;;;;;;5011111;28;20217;-64
2022/06/13 03:30:02;;;;;;;14.10;5.30;;;;;;;;;;4995803;28;20217;-64
2022/06/13 03:32:29;;;;;;;13.80;5.57;;;;;;;;;;4986857;28;20245;-64
2022/06/13 03:34:55;;;;;;;11.75;5.05;;;;;;;;;;4981583;28;20300;-64
2022/06/13 03:37:23;;;;;;;13.52;5.10;;;;;;;;;;4995232;28;20308;-64
2022/06/13 03:39:50;;;;;;;16.65;5.50;;;;;;;;;;4982307;28;20271;-64
2022/06/13 03:42:30;;;;;;;15.90;5.70;;;;;;;;;;4996713;28;20240;-63
2022/06/13 03:45:02;;;;;;;13.50;5.80;;;;;;;;;;5005218;28;20320;-61
2022/06/13 03:47:31;;;;;;;12.88;5.22;;;;;;;;;;5016206;28;20694;-61
2022/06/13 03:49:59;;;;;;;16.75;5.50;;;;;;;;;;4983696;28;20435;-63
2022/06/13 03:52:25;;;;;;;122.25;12.48;;;;;;;;;;4992518;28;20232;-63
2022/06/13 03:54:52;;;;;;;52.25;8.30;;;;;;;;;;4992246;28;20217;-64
2022/06/13 03:57:19;;;;;;;151.52;14.07;;;;;;;;;;4993614;28;20224;-62
2022/06/13 03:59:50;;;;;;;23.85;6.00;;;;;;;;;;4997056;28;20243;-62
2022/06/13 04:02:16;;;;;;;12.80;5.53;;;;;;;;;;5018669;28;20223;-62
2022/06/13 04:04:43;;;;;;;13.32;5.72;;;;;;;;;;4991275;28;21140;-62
2022/06/13 04:07:09;;;;;;;15.25;6.10;;;;;;;;;;5004753;28;20216;-62
2022/06/13 04:09:35;;;;;;;14.73;5.90;;;;;;;;;;4985306;28;20213;-62
2022/06/13 04:12:19;;;;;;;14.98;5.78;;;;;;;;;;4999764;28;20766;-62
2022/06/13 04:14:48;;;;;;;13.43;5.32;;;;;;;;;;4981113;28;20243;-62
2022/06/13 04:17:18;;;;;;;12.95;5.78;;;;;;;;;;4976475;28;20221;-62
2022/06/13 04:19:48;;;;;;;18.20;6.18;;;;;;;;;;5011156;28;20216;-62
2022/06/13 04:22:18;;;;;;;11.30;5.47;;;;;;;;;;4998308;28;20316;-62
2022/06/13 04:24:50;;;;;;;17.77;6.18;;;;;;;;;;5003065;28;20212;-62
2022/06/13 04:27:19;;;;;;;13.50;5.65;;;;;;;;;;4984434;28;20921;-62
2022/06/13 04:29:47;;;;;;;12.43;5.43;;;;;;;;;;5019045;28;20585;-62
2022/06/13 04:32:13;;;;;;;11.80;5.68;;;;;;;;;;5024749;28;20228;-63
2022/06/13 04:34:40;;;;;;;14.27;5.32;;;;;;;;;;5012699;28;20215;-63
2022/06/13 04:37:05;;;;;;;12.80;5.25;;;;;;;;;;5013632;28;20212;-62
2022/06/13 04:39:31;;;;;;;18.33;5.50;;;;;;;;;;5013507;28;20311;-62
2022/06/13 04:41:56;;;;;;;12.70;5.32;;;;;;;;;;5012273;28;20228;-64
2022/06/13 04:44:22;;;;;;;16.17;6.07;;;;;;;;;;4998096;28;20227;-63
2022/06/13 04:46:47;;;;;;;13.27;6.18;;;;;;;;;;4999655;28;20267;-63
2022/06/13 04:49:27;;;;;;;12.90;5.35;;;;;;;;;;4998315;28;20215;-63
2022/06/13 04:51:53;;;;;;;13.82;5.90;;;;;;;;;;5011039;28;20580;-63
2022/06/13 04:54:21;;;;;;;15.82;6.28;;;;;;;;;;4995365;28;20244;-63
2022/06/13 04:56:46;;;;;;;12.63;6.18;;;;;;;;;;5011989;28;20222;-63
2022/06/13 04:59:12;;;;;;;23.83;6.15;;;;;;;;;;5002347;28;20650;-61
2022/06/13 05:01:42;;;;;;;17.90;6.28;;;;;;;;;;5011406;28;20286;-61
2022/06/13 05:04:08;;;;;;;65.03;9.35;;;;;;;;;;5010577;28;20417;-63
2022/06/13 05:06:37;;;;;;;54.67;8.90;;;;;;;;;;5011524;28;20548;-61
2022/06/13 05:09:03;;;;;;;17.85;6.57;;;;;;;;;;5003023;28;20684;-62
2022/06/13 05:11:31;;;;;;;19.85;6.75;;;;;;;;;;5007241;28;20242;-65
2022/06/13 05:13:59;;;;;;;20.25;7.25;;;;;;;;;;5012226;28;20283;-64
2022/06/13 05:16:29;;;;;;;31.42;7.72;;;;;;;;;;5012294;28;20201;-64
2022/06/13 05:19:01;;;;;;;19.02;7.18;;;;;;;;;;5012899;28;20209;-65
2022/06/13 05:21:42;;;;;;;21.17;7.88;;;;;;;;;;5007998;28;20705;-62
2022/06/13 05:24:14;;;;;;;20.25;7.80;;;;;;;;;;5008199;28;20208;-62
2022/06/13 05:26:39;;;;;;;20.77;7.88;;;;;;;;;;5010736;28;20217;-62
2022/06/13 05:29:04;;;;;;;22.73;7.93;;;;;;;;;;5011905;28;20850;-61
2022/06/13 05:31:30;;;;;;;17.23;7.93;;;;;;;;;;5012814;28;20224;-61
2022/06/13 05:33:55;;;;;;;18.90;8.05;;;;;;;;;;5011765;28;20718;-61
2022/06/13 05:36:22;;;;;;;17.48;7.55;;;;;;;;;;5011695;28;20224;-61
2022/06/13 05:38:48;;;;;;;17.75;8.55;;;;;;;;;;5010658;28;20200;-62
2022/06/13 05:41:14;;;;;;;18.30;8.68;;;;;;;;;;5011492;28;20208;-62
2022/06/13 05:43:39;;;;;;;18.67;8.52;;;;;;;;;;5012653;28;20220;-61
2022/06/13 05:46:05;;;;;;;21.27;8.93;;;;;;;;;;5012464;28;20228;-61
2022/06/13 05:48:30;;;;;;;26.15;9.73;;;;;;;;;;5010814;28;20223;-62
2022/06/13 05:50:55;;;;;;;26.65;9.05;;;;;;;;;;5012206;28;20237;-62
2022/06/13 05:53:22;;;;;;;24.30;9.10;;;;;;;;;;5011780;28;20216;-62
2022/06/13 05:55:47;;;;;;;26.95;9.43;;;;;;;;;;5011949;28;20578;-62
2022/06/13 05:58:13;;;;;;;330.48;31.25;;;;;;;;;;5011996;28;20671;-61
2022/06/13 06:00:42;;;;;;;20.75;8.35;;;;;;;;;;5017872;28;20292;-61
2022/06/13 06:03:07;;;;;;;22.17;8.57;;;;;;;;;;5030984;28;20702;-62
2022/06/13 06:05:32;;;;;;;19.98;8.50;;;;;;;;;;5015317;28;20299;-61
2022/06/13 06:07:58;;;;;;;25.05;9.27;;;;;;;;;;5007932;28;20673;-59
2022/06/13 06:10:27;;;;;;;17.38;7.95;;;;;;;;;;5001031;28;20603;-60
2022/06/13 06:12:52;;;;;;;16.50;7.53;;;;;;;;;;5001240;28;20725;-61
2022/06/13 06:15:17;;;;;;;21.85;8.13;;;;;;;;;;5000427;28;20205;-60
2022/06/13 06:17:42;;;;;;;17.02;7.55;;;;;;;;;;5002458;28;20212;-60
2022/06/13 06:20:09;;;;;;;19.65;7.05;;;;;;;;;;5000011;28;20209;-61
2022/06/13 06:22:34;;;;;;;21.17;6.68;;;;;;;;;;5000398;28;20201;-61
2022/06/13 06:25:00;;;;;;;15.60;7.13;;;;;;;;;;4992258;28;20205;-61
2022/06/13 06:27:25;;;;;;;23.02;6.53;;;;;;;;;;5011433;28;20262;-62
2022/06/13 06:29:50;;;;;;;17.65;6.38;;;;;;;;;;5011133;28;20565;-62
2022/06/13 06:32:16;;;;;;;15.07;5.82;;;;;;;;;;5010316;28;20290;-61
2022/06/13 06:34:41;;;;;;;63.47;7.85;;;;;;;;;;5010830;28;20416;-61
2022/06/13 06:37:07;;;;;;;208.70;16.85;;;;;;;;;;5009900;28;20209;-61
2022/06/13 06:39:32;;;;;;;17.30;4.78;;;;;;;;;;5010735;28;20237;-61
2022/06/13 06:41:58;;;;;;;12.07;4.00;;;;;;;;;;5007505;28;20254;-61
2022/06/13 06:44:23;;;;;;;12.32;3.83;;;;;;;;;;5007735;28;20350;-62
2022/06/13 06:46:48;;;;;;;16.25;4.38;;;;;;;;;;5011722;28;20247;-60
2022/06/13 06:49:14;;;;;;;15.10;3.72;;;;;;;;;;5004027;28;20691;-60
2022/06/13 06:51:41;;;;;;;11.32;3.17;;;;;;;;;;5010780;28;20678;-60
2022/06/13 06:59:53;;;;;;;11.63;3.42;;;;;;;;;;5010061;28;20236;-61
2022/06/13 07:02:20;;;;;;;10.52;2.95;;;;;;;;;;5011016;28;20218;-61
2022/06/13 07:04:46;;;;;;;28.98;3.80;;;;;;;;;;5011375;28;20247;-64
2022/06/13 07:07:11;;;;;;;13.27;3.15;;;;;;;;;;5009472;28;20255;-61
2022/06/13 07:09:36;;;;;;;8.23;3.00;;;;;;;;;;5011723;28;20201;-61
2022/06/13 07:12:01;;;;;;;12.82;3.45;;;;;;;;;;5010165;28;20683;-63
2022/06/13 07:14:33;;;;;;;10.07;3.63;;;;;;;;;;5010999;28;20215;-62
2022/06/13 07:16:59;;;;;;;14.68;4.00;;;;;;;;;;5011279;28;20208;-63
2022/06/13 07:19:24;;;;;;;11.18;4.30;;;;;;;;;;5009982;28;20205;-64
2022/06/13 07:21:50;;;;;;;28.80;4.38;;;;;;;;;;5011308;28;20250;-63
2022/06/13 07:24:15;;;;;;;15.30;3.50;;;;;;;;;;5011137;28;20242;-63
2022/06/13 07:26:40;;;;;;;11.93;3.40;;;;;;;;;;5013064;28;20250;-63
2022/06/13 07:29:05;;;;;;;21.10;4.03;;;;;;;;;;5014259;28;20580;-63
2022/06/13 07:31:33;;;;;;;12.20;3.58;;;;;;;;;;5010817;28;20355;-63
2022/06/13 07:33:58;;;;;;;20.80;3.60;;;;;;;;;;4993629;28;20746;-63
2022/06/13 07:36:23;;;;;;;12.88;3.20;;;;;;;;;;4995102;28;20213;-65
2022/06/13 07:38:49;;;;;;;11.48;3.13;;;;;;;;;;4995629;28;20739;-64
2022/06/13 07:41:16;;;;;;;347.73;26.45;;;;;;;;;;4993970;28;20213;-63
2022/06/13 07:43:43;;;;;;;15.35;3.58;;;;;;;;;;4999139;28;20612;-66
2022/06/13 07:46:08;;;;;;;227.73;18.30;;;;;;;;;;4994176;28;20331;-63
2022/06/13 07:48:34;;;;;;;122.45;9.07;;;;;;;;;;4990286;28;20771;-65
2022/06/13 07:50:59;;;;;;;27.35;3.88;;;;;;;;;;4994710;28;20554;-64
2022/06/13 07:53:25;;;;;;;17.40;3.15;;;;;;;;;;4994431;28;20217;-64
2022/06/13 07:55:50;;;;;;;29.30;3.72;;;;;;;;;;4994246;28;20220;-65
2022/06/13 07:58:17;;;;;;;13.60;2.53;;;;;;;;;;4992044;28;20204;-64
2022/06/13 08:00:43;;;;;;;12.05;2.30;;;;;;;;;;4992835;28;20225;-63
2022/06/13 08:03:09;;;;;;;11.50;2.28;;;;;;;;;;4991810;28;20231;-66
2022/06/13 08:05:34;;;;;;;18.70;2.88;;;;;;;;;;4993983;28;20217;-74
2022/06/13 08:08:01;;;;;;;15.27;2.35;;;;;;;;;;4994501;28;20319;-75
2022/06/13 08:10:27;;;;;;;53.65;5.80;;;;;;;;;;4994197;28;20245;-76
2022/06/13 08:12:52;;;;;;;76.88;6.25;;;;;;;;;;4994275;28;20592;-86
2022/06/13 08:15:17;;;;;;;12.90;2.28;;;;;;;;;;4993500;28;20295;-72
2022/06/13 08:17:43;;;;;;;16.08;2.70;;;;;;;;;;5007881;28;20215;-71
2022/06/13 08:20:08;;;;;;;48.15;4.70;;;;;;;;;;5014009;28;20215;-75
2022/06/13 08:22:39;;;;;;;9.27;2.42;;;;;;;;;;5012684;28;20220;-76
2022/06/13 08:25:05;;;;;;;11.73;2.33;;;;;;;;;;5013629;28;20239;-72
2022/06/13 08:27:30;;;;;;;14.80;2.20;;;;;;;;;;5013825;28;20212;-73
2022/06/13 08:29:56;;;;;;;9.77;1.83;;;;;;;;;;5012960;28;20220;-73
2022/06/13 08:32:21;;;;;;;6.93;1.75;;;;;;;;;;4997537;28;20228;-73
2022/06/13 08:34:47;;;;;;;7.63;1.65;;;;;;;;;;5006518;28;20225;-70
2022/06/13 08:37:13;;;;;;;10.55;1.70;;;;;;;;;;5012755;28;20208;-73
2022/06/13 08:39:38;;;;;;;6.32;1.45;;;;;;;;;;5013137;28;20710;-76
2022/06/13 08:42:09;;;;;;;13.82;2.47;;;;;;;;;;5012974;28;20213;-73
2022/06/13 08:44:38;;;;;;;25.98;3.17;;;;;;;;;;5012089;28;20212;-75
2022/06/13 08:47:19;;;;;;;11.02;1.80;;;;;;;;;;5012721;28;20240;-71
2022/06/13 08:50:03;;;;;;;6.28;1.50;;;;;;;;;;5013827;28;20683;-71
2022/06/13 08:52:29;;;;;;;31.25;3.40;;;;;;;;;;5012621;28;20219;-75
2022/06/13 08:54:58;;;;;;;9.65;1.73;;;;;;;;;;5013662;28;20311;-73
2022/06/13 08:57:24;;;;;;;8.88;1.70;;;;;;;;;;5011753;28;20239;-74
2022/06/13 08:59:51;;;;;;;7.78;1.33;;;;;;;;;;5011897;28;20275;-74
2022/06/13 09:02:20;;;;;;;6.63;1.27;;;;;;;;;;5012926;28;20220;-74
2022/06/13 09:04:55;;;;;;;15.00;1.83;;;;;;;;;;5011822;28;20746;-76
2022/06/13 09:07:26;;;;;;;12.73;1.70;;;;;;;;;;5011296;28;20270;-70
2022/06/13 09:09:53;;;;;;;6.38;1.20;;;;;;;;;;5013335;28;20224;-75
2022/06/13 09:12:21;;;;;;;17.45;2.00;;;;;;;;;;5012188;28;20223;-71
2022/06/13 09:14:58;;;;;;;6.43;0.95;;;;;;;;;;5013366;28;20219;-73
2022/06/13 09:17:27;;;;;;;9.30;1.08;;;;;;;;;;5012485;28;20204;-72
2022/06/13 09:19:54;;;;;;;7.97;1.10;;;;;;;;;;5011266;28;20303;-73
2022/06/13 09:22:21;;;;;;;5.95;0.90;;;;;;;;;;5012390;28;20215;-75
2022/06/13 09:24:46;;;;;;;24.70;2.78;;;;;;;;;;5013245;28;20209;-79
2022/06/13 09:27:14;;;;;;;46.80;3.08;;;;;;;;;;5012441;28;20627;-71
2022/06/13 09:29:51;;;;;;;6.85;1.00;;;;;;;;;;5013058;28;20217;-74
2022/06/13 09:32:17;;;;;;;37.90;4.05;;;;;;;;;;5001579;28;20340;-80
2022/06/13 09:34:43;;;;;;;17.10;1.90;;;;;;;;;;4992648;28;20213;-77
2022/06/13 09:37:09;;;;;;;44.05;2.90;;;;;;;;;;4992791;28;20316;-75
2022/06/13 09:39:35;;;;;;;16.92;1.83;;;;;;;;;;4993466;28;20263;-76
2022/06/13 09:42:05;;;;;;;10.60;1.10;;;;;;;;;;4992384;28;20590;-69
2022/06/13 09:44:36;;;;;;;19.38;1.80;;;;;;;;;;5003979;28;20292;-75
2022/06/13 09:47:06;;;;;;;11.63;1.20;;;;;;;;;;5011380;28;20208;-73
2022/06/13 09:49:36;;;;;;;19.50;1.42;;;;;;;;;;5010041;28;20303;-77
2022/06/13 09:52:11;;;;;;;8.40;1.10;;;;;;;;;;5012447;28;20224;-77
2022/06/13 09:54:39;;;;;;;18.88;1.73;;;;;;;;;;5012662;28;20215;-78
2022/06/13 09:57:05;;;;;;;7.00;1.10;;;;;;;;;;5011099;28;20223;-77
2022/06/13 09:59:50;;;;;;;12.68;1.45;;;;;;;;;;5011835;28;20593;-75
2022/06/13 10:02:25;;;;;;;28.02;2.50;;;;;;;;;;5002782;28;20212;-75
2022/06/13 10:04:51;;;;;;;22.15;1.75;;;;;;;;;;5008094;28;20224;-83
2022/06/13 10:07:18;;;;;;;4.18;0.95;;;;;;;;;;5012131;28;20681;-75
2022/06/13 10:09:52;;;;;;;6.65;1.13;;;;;;;;;;5011533;28;20212;-81
2022/06/13 10:12:19;;;;;;;5.18;1.00;;;;;;;;;;5011611;28;20248;-78
2022/06/13 10:14:48;;;;;;;3.78;0.93;;;;;;;;;;4998042;28;20271;-77
2022/06/13 10:17:17;;;;;;;5.35;1.15;;;;;;;;;;4991713;28;20209;-74
2022/06/13 10:19:49;;;;;;;3.17;0.73;;;;;;;;;;4992790;28;20216;-74
2022/06/13 10:22:15;;;;;;;8.15;1.10;;;;;;;;;;4991441;28;20224;-71
2022/06/13 10:24:45;;;;;;;6.60;0.95;;;;;;;;;;4991032;28;20217;-72
2022/06/13 10:27:31;;;;;;;6.95;0.90;;;;;;;;;;4990777;28;20225;-73
2022/06/13 10:30:04;;;;;;;6.47;1.00;;;;;;;;;;4991835;28;20740;-72
2022/06/13 10:32:34;;;;;;;6.55;1.00;;;;;;;;;;5009971;28;20223;-70
2022/06/13 10:35:04;;;;;;;6.20;1.25;;;;;;;;;;5010649;28;20211;-71
2022/06/13 10:37:34;;;;;;;110.25;7.05;;;;;;;;;;5010857;28;20663;-71
2022/06/13 10:40:00;;;;;;;9.95;1.40;;;;;;;;;;5011828;28;20663;-73
2022/06/13 10:42:27;;;;;;;465.48;34.97;;;;;;;;;;5010472;28;20213;-72
2022/06/13 10:44:52;;;;;;;5.45;1.00;;;;;;;;;;4995982;28;20271;-72
2022/06/13 10:47:21;;;;;;;39.22;3.22;;;;;;;;;;4990367;28;20217;-74
2022/06/13 10:49:48;;;;;;;47.38;4.25;;;;;;;;;;4974292;28;20232;-73
2022/06/13 10:52:14;;;;;;;21.52;1.90;;;;;;;;;;4989581;28;20809;-71
2022/06/13 10:54:42;;;;;;;9.07;1.30;;;;;;;;;;4992324;28;20217;-72
2022/06/13 10:57:09;;;;;;;6.10;1.02;;;;;;;;;;4991286;28;20224;-72
2022/06/13 10:59:35;;;;;;;12.05;1.35;;;;;;;;;;4990315;28;20217;-73
2022/06/13 11:02:02;;;;;;;19.42;1.88;;;;;;;;;;4991207;28;20236;-70
2022/06/13 11:04:28;;;;;;;63.35;5.85;;;;;;;;;;4991269;28;20657;-76
2022/06/13 11:06:54;;;;;;;9.02;1.38;;;;;;;;;;4991676;28;20221;-73
2022/06/13 11:09:21;;;;;;;5.78;1.08;;;;;;;;;;4991518;28;20220;-73
2022/06/13 11:11:46;;;;;;;9.30;1.40;;;;;;;;;;4991300;28;20747;-72
2022/06/13 11:14:27;;;;;;;17.27;2.00;;;;;;;;;;4991437;28;20308;-73
2022/06/13 11:22:37;;;;;;;5.65;1.08;;;;;;;;;;5004891;28;20227;-74
2022/06/13 11:22:42;;;;;;;11.05;1.20;;;;;;;;;;4991486;28;20220;-73
2022/06/13 11:25:10;;;;;;;7.82;1.25;;;;;;;;;;4990823;28;20680;-73
2022/06/13 11:27:42;;;;;;;11.93;1.27;;;;;;;;;;4991446;28;20216;-72
2022/06/13 11:30:26;;;;;;;7.82;0.95;;;;;;;;;;4991172;28;20275;-71
2022/06/13 11:32:57;;;;;;;4.28;0.80;;;;;;;;;;5006181;28;20362;-72
2022/06/13 11:35:30;;;;;;;10.57;1.65;;;;;;;;;;5010494;28;20223;-72
2022/06/13 11:38:00;;;;;;;7.03;1.45;;;;;;;;;;5011039;28;20216;-72
2022/06/13 11:40:26;;;;;;;8.75;1.02;;;;;;;;;;5008467;28;20632;-73
2022/06/13 11:42:52;;;;;;;3.25;1.08;;;;;;;;;;5010832;28;20338;-75
2022/06/13 11:45:20;;;;;;;6.47;1.10;;;;;;;;;;5011058;28;20684;-75
2022/06/13 11:47:48;;;;;;;8.05;1.30;;;;;;;;;;5009161;28;20240;-73
2022/06/13 11:50:14;;;;;;;4.43;0.88;;;;;;;;;;5009204;28;20213;-72
2022/06/13 11:55:26;;;;;;;10.52;1.05;;;;;;;;;;5009122;28;20266;-72
2022/06/13 11:57:53;;;;;;;4.38;0.75;;;;;;;;;;5011411;28;20556;-73
2022/06/13 12:00:19;;;;;;;7.38;1.50;;;;;;;;;;5008588;28;20287;-71
2022/06/13 12:02:47;;;;;;;5.18;0.90;;;;;;;;;;5010670;28;20213;-72
2022/06/13 12:05:15;;;;;;;2.85;0.82;;;;;;;;;;5010305;28;20217;-74
2022/06/13 12:07:52;;;;;;;7.03;1.00;;;;;;;;;;5010514;28;20225;-73
2022/06/13 12:10:19;;;;;;;20.98;2.03;;;;;;;;;;5010478;28;20259;-70
2022/06/13 12:12:44;;;;;;;8.43;1.48;;;;;;;;;;5008236;28;20941;-71
2022/06/13 12:15:11;;;;;;;5.55;1.05;;;;;;;;;;5005500;28;20213;-73
2022/06/13 12:17:38;;;;;;;4.65;1.20;;;;;;;;;;5010821;28;20212;-73
2022/06/13 12:20:25;;;;;;;7.13;1.10;;;;;;;;;;5012435;28;20209;-73
2022/06/13 12:22:50;;;;;;;11.48;1.23;;;;;;;;;;5013916;28;20213;-72
2022/06/13 12:25:18;;;;;;;13.27;1.48;;;;;;;;;;5014079;28;20220;-76
2022/06/13 12:27:52;;;;;;;11.15;1.90;;;;;;;;;;5012686;28;20288;-72
2022/06/13 12:30:26;;;;;;;179.70;12.23;;;;;;;;;;5011522;28;20217;-74
2022/06/13 12:32:56;;;;;;;8.73;1.10;;;;;;;;;;4999291;28;20225;-72
2022/06/13 12:35:30;;;;;;;5.28;0.93;;;;;;;;;;4994124;28;20551;-73
2022/06/13 12:38:05;;;;;;;2.45;0.70;;;;;;;;;;4993427;28;20209;-72
2022/06/13 12:40:34;;;;;;;4.72;0.95;;;;;;;;;;5001713;28;20222;-72
2022/06/13 12:43:07;;;;;;;12.43;1.38;;;;;;;;;;4993756;28;20209;-73
2022/06/13 12:45:43;;;;;;;5.55;0.90;;;;;;;;;;5013539;28;20679;-73
2022/06/13 12:48:19;;;;;;;9.45;1.13;;;;;;;;;;5013333;28;20549;-73
2022/06/13 12:50:48;;;;;;;5.20;1.05;;;;;;;;;;5012946;28;20295;-75
2022/06/13 12:53:14;;;;;;;6.90;1.20;;;;;;;;;;5013172;28;20247;-65
2022/06/13 12:55:43;;;;;;;6.97;0.90;;;;;;;;;;5013705;28;20679;-65
2022/06/13 12:58:26;;;;;;;4.50;0.93;;;;;;;;;;5011185;28;20692;-64
2022/06/13 13:00:52;;;;;;;6.82;0.88;;;;;;;;;;5013276;28;20780;-65
2022/06/13 13:03:26;;;;;;;4.70;1.50;;;;;;;;;;5012793;28;20216;-65
2022/06/13 13:06:10;;;;;;;7.30;1.10;;;;;;;;;;5011346;28;20208;-66
2022/06/13 13:08:43;;;;;;;33.40;2.67;;;;;;;;;;5013378;28;20278;-65
2022/06/13 13:11:28;;;;;;;25.05;2.08;;;;;;;;;;5012491;28;20220;-65
2022/06/13 13:14:03;;;;;;;84.70;5.97;;;;;;;;;;5012564;28;20745;-66
2022/06/13 13:16:32;;;;;;;5.60;0.88;;;;;;;;;;5012898;28;20319;-65
2022/06/13 13:19:02;;;;;;;9.10;1.33;;;;;;;;;;5011304;28;20220;-64
2022/06/13 13:21:29;;;;;;;11.80;1.33;;;;;;;;;;5011681;28;20250;-64
2022/06/13 13:24:06;;;;;;;5.10;0.80;;;;;;;;;;5013112;28;20270;-64
2022/06/13 13:26:31;;;;;;;8.20;0.80;;;;;;;;;;5011900;28;20216;-65
2022/06/13 13:29:15;;;;;;;6.25;1.40;;;;;;;;;;5012612;28;20751;-66
2022/06/13 13:31:42;;;;;;;9.10;1.20;;;;;;;;;;5007434;28;20231;-66
2022/06/13 13:34:16;;;;;;;6.15;0.98;;;;;;;;;;4992697;28;20324;-66
2022/06/13 13:36:48;;;;;;;10.50;0.85;;;;;;;;;;4992003;28;20758;-65
2022/06/13 13:39:15;;;;;;;9.07;1.55;;;;;;;;;;4990808;28;20233;-65
2022/06/13 13:41:42;;;;;;;5.53;0.70;;;;;;;;;;4991672;28;20213;-65
2022/06/13 13:44:10;;;;;;;17.33;1.50;;;;;;;;;;5000493;28;20266;-66
2022/06/13 13:46:39;;;;;;;4.00;0.52;;;;;;;;;;5011222;28;20212;-66
2022/06/13 13:49:05;;;;;;;3.97;0.60;;;;;;;;;;5010457;28;20227;-64
2022/06/13 13:51:38;;;;;;;12.80;1.63;;;;;;;;;;4994879;28;20572;-64
2022/06/13 13:54:08;;;;;;;6.70;1.02;;;;;;;;;;5011425;28;20221;-64
2022/06/13 13:56:36;;;;;;;4.70;0.63;;;;;;;;;;5011627;28;20220;-63
2022/06/13 13:59:01;;;;;;;47.40;3.50;;;;;;;;;;5011783;28;20330;-64
2022/06/13 14:01:31;;;;;;;5.53;0.70;;;;;;;;;;5010434;28;20646;-63
2022/06/13 14:04:08;;;;;;;9.35;0.80;;;;;;;;;;5010971;28;20354;-64
2022/06/13 14:06:37;;;;;;;19.23;1.70;;;;;;;;;;5012041;28;20212;-64
2022/06/13 14:09:04;;;;;;;5.30;0.98;;;;;;;;;;5011176;28;20212;-64
2022/06/13 14:11:29;;;;;;;259.63;20.75;;;;;;;;;;5011028;28;20749;-64
2022/06/13 14:13:59;;;;;;;7.68;1.05;;;;;;;;;;5011828;28;20292;-64
2022/06/13 14:16:24;;;;;;;112.25;8.55;;;;;;;;;;5011554;28;20259;-63
2022/06/13 14:19:10;;;;;;;5.38;0.88;;;;;;;;;;5011981;28;20698;-64
2022/06/13 14:21:36;;;;;;;3.28;0.80;;;;;;;;;;5010624;28;20231;-64
2022/06/13 14:24:09;;;;;;;3.08;0.70;;;;;;;;;;5002746;28;20224;-64
2022/06/13 14:26:35;;;;;;;4.22;0.82;;;;;;;;;;5012003;28;20220;-64
2022/06/13 14:29:15;;;;;;;5.57;0.82;;;;;;;;;;5008533;28;20745;-64
2022/06/13 14:31:52;;;;;;;7.88;0.90;;;;;;;;;;5006337;28;20560;-64
2022/06/13 14:37:21;;;;;;;56.40;4.25;;;;;;;;;;4990904;28;20256;-63
2022/06/13 14:39:49;;;;;;;5.95;1.00;;;;;;;;;;4992118;28;20631;-63
2022/06/13 14:42:16;;;;;;;30.80;2.40;;;;;;;;;;4989761;28;20295;-63
2022/06/13 14:44:52;;;;;;;20.55;2.47;;;;;;;;;;5005849;28;20220;-64
2022/06/13 14:47:21;;;;;;;7.93;0.95;;;;;;;;;;5010500;28;20212;-63
2022/06/13 14:49:47;;;;;;;7.88;1.02;;;;;;;;;;5009693;28;20216;-63
2022/06/13 14:52:14;;;;;;;4.47;0.98;;;;;;;;;;5011243;28;20228;-63
2022/06/13 14:54:48;;;;;;;5.70;1.20;;;;;;;;;;5011770;28;20625;-62
2022/06/13 14:57:26;;;;;;;5.57;1.00;;;;;;;;;;5010725;28;20224;-63